createdAt,value
2022-10-12T00:00:00.328Z,85.51
2022-10-12T00:02:22.421Z,85.64
2022-10-12T00:04:47.178Z,86.04
2022-10-12T00:07:09.140Z,86.38
2022-10-12T00:09:32.203Z,86.40
2022-10-12T00:11:54.203Z,85.36
2022-10-12T00:14:16.154Z,85.79
2022-10-12T00:16:39.584Z,86.17
2022-10-12T00:19:01.723Z,86.89
2022-10-12T00:21:25.258Z,86.68
2022-10-12T00:23:49.827Z,86.84
2022-10-12T00:26:15.699Z,86.74
2022-10-12T00:28:38.159Z,86.29
2022-10-12T00:31:02.067Z,86.92
2022-10-12T00:33:24.407Z,88.09
2022-10-12T00:35:46.450Z,87.52
2022-10-12T00:38:10.697Z,86.80
2022-10-12T00:40:32.688Z,86.79
2022-10-12T00:42:56.256Z,87.53
2022-10-12T00:45:18.409Z,85.87
2022-10-12T00:47:44.921Z,85.69
2022-10-12T00:50:13.848Z,85.31
2022-10-12T00:52:47.044Z,86.11
2022-10-12T00:55:15.277Z,86.00
2022-10-12T00:57:37.720Z,86.83
2022-10-12T01:00:05.267Z,87.06
2022-10-12T01:02:29.816Z,86.90
2022-10-12T01:04:55.387Z,87.75
2022-10-12T01:07:19.712Z,87.45
2022-10-12T01:09:42.213Z,87.89
2022-10-12T01:12:07.057Z,87.83
2022-10-12T01:14:28.961Z,88.08
2022-10-12T01:16:58.115Z,87.88
2022-10-12T01:19:57.108Z,88.66
2022-10-12T01:22:20.978Z,88.61
2022-10-12T01:24:53.827Z,88.63
2022-10-12T01:27:24.925Z,88.08
2022-10-12T01:30:08.488Z,88.39
2022-10-12T01:32:59.590Z,89.27
2022-10-12T01:35:26.555Z,89.62
2022-10-12T01:38:05.277Z,89.97
2022-10-12T01:40:36.087Z,91.61
2022-10-12T01:43:02.510Z,91.10
2022-10-12T01:45:25.617Z,91.24
2022-10-12T01:47:52.836Z,91.97
2022-10-12T01:50:17.088Z,91.76
2022-10-12T01:53:03.677Z,91.18
2022-10-12T01:55:25.733Z,92.34
2022-10-12T01:58:27.706Z,92.43
2022-10-12T02:01:42.543Z,91.60
2022-10-12T02:04:27.558Z,91.08
2022-10-12T02:07:00.137Z,91.75
2022-10-12T02:09:33.983Z,92.15
2022-10-12T02:12:00.381Z,93.20
2022-10-12T02:14:27.924Z,93.57
2022-10-12T02:17:02.619Z,92.90
2022-10-12T02:19:34.548Z,92.70
2022-10-12T02:22:02.119Z,93.04
2022-10-12T02:24:24.292Z,92.44
2022-10-12T02:26:50.452Z,92.54
2022-10-12T02:29:16.117Z,92.00
2022-10-12T02:31:39.104Z,92.12
2022-10-12T02:34:04.037Z,92.08
2022-10-12T02:36:34.503Z,91.82
2022-10-12T02:39:23.919Z,92.24
2022-10-12T02:41:51.798Z,92.01
2022-10-12T02:44:20.485Z,92.43
2022-10-12T02:46:50.411Z,91.94
2022-10-12T02:49:14.442Z,93.24
2022-10-12T02:51:37.809Z,93.24
2022-10-12T02:54:00.676Z,92.62
2022-10-12T02:56:23.482Z,92.55
2022-10-12T02:58:47.503Z,93.17
2022-10-12T03:01:12.082Z,93.21
2022-10-12T03:03:35.062Z,93.14
2022-10-12T03:05:57.015Z,92.93
2022-10-12T03:08:19.074Z,92.63
2022-10-12T03:10:40.952Z,94.20
2022-10-12T03:13:02.874Z,94.15
2022-10-12T03:15:32.414Z,94.15
2022-10-12T03:17:55.741Z,93.84
2022-10-12T03:20:17.989Z,93.67
2022-10-12T03:22:44.082Z,93.78
2022-10-12T03:25:06.313Z,94.07
2022-10-12T03:27:29.613Z,93.55
2022-10-12T03:29:52.592Z,93.69
2022-10-12T03:32:16.121Z,94.23
2022-10-12T03:34:37.998Z,93.71
2022-10-12T03:37:01.196Z,93.14
2022-10-12T03:39:23.151Z,93.53
2022-10-12T03:41:45.080Z,94.09
2022-10-12T03:44:06.954Z,93.89
2022-10-12T03:46:30.118Z,94.12
2022-10-12T03:48:52.077Z,94.04
2022-10-12T03:51:14.050Z,94.47
2022-10-12T03:53:35.986Z,93.55
2022-10-12T03:55:59.161Z,93.52
2022-10-12T03:58:24.072Z,93.38
2022-10-12T04:00:46.211Z,93.43
2022-10-12T04:03:08.130Z,93.56
2022-10-12T04:05:31.206Z,93.46
2022-10-12T04:07:53.161Z,92.94
2022-10-12T04:10:15.191Z,92.64
2022-10-12T04:12:38.473Z,92.61
2022-10-12T04:15:00.505Z,93.23
2022-10-12T04:17:22.380Z,93.63
2022-10-12T04:19:44.883Z,93.49
2022-10-12T04:22:08.338Z,93.29
2022-10-12T04:24:30.287Z,92.79
2022-10-12T04:26:52.179Z,92.72
2022-10-12T04:29:14.396Z,92.54
2022-10-12T04:31:37.432Z,91.86
2022-10-12T04:33:59.429Z,92.45
2022-10-12T04:36:21.329Z,92.69
2022-10-12T04:38:43.574Z,92.28
2022-10-12T04:41:05.919Z,92.84
2022-10-12T04:43:28.222Z,93.74
2022-10-12T04:45:59.064Z,93.55
2022-10-12T04:48:20.937Z,93.52
2022-10-12T04:50:43.211Z,93.18
2022-10-12T04:53:05.136Z,92.88
2022-10-12T04:55:27.364Z,93.42
2022-10-12T04:57:50.217Z,93.83
2022-10-12T05:00:12.615Z,93.37
2022-10-12T05:02:34.514Z,93.76
2022-10-12T05:04:56.403Z,94.09
2022-10-12T05:07:18.390Z,93.21
2022-10-12T05:09:44.480Z,93.39
2022-10-12T05:12:06.477Z,93.63
2022-10-12T05:14:31.077Z,93.29
2022-10-12T05:16:56.481Z,93.52
2022-10-12T05:19:18.335Z,94.40
2022-10-12T05:21:40.513Z,95.12
2022-10-12T05:24:02.570Z,95.02
2022-10-12T05:26:24.583Z,94.39
2022-10-12T05:28:49.070Z,94.50
2022-10-12T05:31:11.384Z,93.56
2022-10-12T05:33:33.326Z,93.17
2022-10-12T05:35:56.628Z,93.62
2022-10-12T05:38:19.196Z,93.28
2022-10-12T05:40:41.159Z,92.93
2022-10-12T05:43:03.143Z,93.59
2022-10-12T05:45:27.269Z,93.05
2022-10-12T05:47:49.156Z,93.37
2022-10-12T05:50:14.357Z,92.97
2022-10-12T05:52:36.648Z,92.16
2022-10-12T05:54:58.819Z,93.28
2022-10-12T05:57:20.730Z,93.61
2022-10-12T05:59:43.397Z,94.51
2022-10-12T06:02:05.409Z,94.27
2022-10-12T06:04:27.493Z,94.31
2022-10-12T06:06:50.628Z,94.20
2022-10-12T06:09:13.096Z,94.14
2022-10-12T06:11:36.488Z,94.00
2022-10-12T06:13:58.630Z,93.79
2022-10-12T06:16:20.575Z,94.32
2022-10-12T06:18:42.798Z,94.48
2022-10-12T06:21:28.407Z,94.62
2022-10-12T06:23:46.825Z,94.50
2022-10-12T06:26:08.924Z,94.48
2022-10-12T06:28:31.021Z,94.40
2022-10-12T06:30:54.847Z,93.68
2022-10-12T06:33:16.723Z,93.58
2022-10-12T06:35:38.774Z,93.40
2022-10-12T06:38:00.813Z,93.08
2022-10-12T06:40:22.756Z,94.12
2022-10-12T06:42:46.322Z,94.32
2022-10-12T06:45:08.606Z,93.31
2022-10-12T06:47:30.519Z,94.42
2022-10-12T06:49:53.538Z,95.77
2022-10-12T06:52:16.501Z,96.19
2022-10-12T06:54:39.361Z,96.36
2022-10-12T06:57:02.398Z,97.43
2022-10-12T06:59:25.688Z,97.98
2022-10-12T07:01:47.638Z,98.92
2022-10-12T07:04:09.626Z,99.29
2022-10-12T07:06:31.600Z,100.00
2022-10-12T07:08:55.142Z,100.00
2022-10-12T07:11:17.065Z,100.00
2022-10-12T07:13:39.103Z,100.00
2022-10-12T07:16:04.145Z,100.00
2022-10-12T07:18:26.145Z,100.00
2022-10-12T07:20:48.042Z,100.00
2022-10-12T07:23:09.895Z,100.00
2022-10-12T07:25:32.104Z,100.00
2022-10-12T07:27:55.449Z,100.00
2022-10-12T07:30:17.497Z,100.00
2022-10-12T07:32:39.370Z,100.00
2022-10-12T07:35:01.253Z,100.00
2022-10-12T07:37:24.189Z,100.00
2022-10-12T07:39:46.213Z,100.00
2022-10-12T07:42:08.313Z,100.00
2022-10-12T07:44:30.864Z,100.00
2022-10-12T07:46:52.986Z,100.00
2022-10-12T07:49:15.709Z,100.00
2022-10-12T07:51:37.605Z,100.00
